Time;durP1;ratioP1;P1;durP2;ratioP2;P2;SDS_P1;SDS_P2;PMS_P1;PMS_P2;Temp;Humidity;BMP_temperature;BMP_pressure;BME280_temperature;BME280_humidity;BME280_pressure;Samples;Min_cycle;Max_cycle;Signal;HPM_P1;HPM_P2
2021/07/11 00:06:37;;;;;;;5.93;3.17;;;15.10;99.90;;;;;;20977614;28;20040;-80
2021/07/11 00:16:37;;;;;;;5.63;3.50;;;15.10;99.90;;;;;;20988142;28;20071;-81
2021/07/11 00:26:38;;;;;;;7.00;3.93;;;15.00;99.90;;;;;;20990342;28;20035;-81
2021/07/11 00:36:40;;;;;;;5.77;3.40;;;14.90;99.90;;;;;;20991411;28;20039;-80
2021/07/11 00:46:43;;;;;;;9.65;3.30;;;14.90;99.90;;;;;;20973432;28;20882;-80
2021/07/11 00:56:45;;;;;;;9.27;4.55;;;15.10;99.90;;;;;;20971693;28;20032;-81
2021/07/11 01:06:53;;;;;;;8.68;3.92;;;15.00;99.90;;;;;;20959403;28;20128;-82
2021/07/11 01:16:55;;;;;;;8.95;4.80;;;15.00;99.90;;;;;;20945327;28;20032;-80
2021/07/11 01:27:03;;;;;;;10.13;4.40;;;15.00;99.90;;;;;;20977870;28;20078;-82
2021/07/11 01:37:04;;;;;;;12.80;5.20;;;15.00;99.90;;;;;;20965283;28;20028;-81
2021/07/11 01:47:10;;;;;;;9.07;4.28;;;15.00;99.90;;;;;;20974242;28;20047;-81
2021/07/11 01:57:15;;;;;;;8.32;3.78;;;15.00;99.90;;;;;;20958601;28;20103;-81
2021/07/11 02:07:23;;;;;;;4.88;2.90;;;15.10;99.90;;;;;;21055242;28;20040;-81
2021/07/11 02:17:27;;;;;;;10.80;4.13;;;15.10;99.90;;;;;;21027005;28;20042;-81
2021/07/11 02:27:53;;;;;;;6.90;3.67;;;15.10;99.90;;;;;;21042521;28;20123;-81
2021/07/11 02:37:54;;;;;;;7.57;4.40;;;15.00;99.90;;;;;;21064258;28;20088;-81
2021/07/11 02:48:00;;;;;;;9.40;4.47;;;15.00;99.90;;;;;;21037240;28;20029;-81
2021/07/11 02:58:06;;;;;;;8.63;4.55;;;14.90;99.90;;;;;;21053809;28;20039;-81
2021/07/11 03:08:11;;;;;;;12.38;5.57;;;14.70;99.90;;;;;;20980089;28;20040;-81
2021/07/11 03:18:16;;;;;;;14.10;6.50;;;14.60;99.90;;;;;;20978092;28;20138;-81
2021/07/11 03:28:20;;;;;;;16.08;6.95;;;14.60;99.90;;;;;;20978434;28;20033;-81
2021/07/11 03:38:29;;;;;;;11.90;5.53;;;14.50;99.90;;;;;;21010910;28;20025;-80
2021/07/11 03:48:46;;;;;;;12.07;6.28;;;14.60;99.90;;;;;;20992956;28;20043;-81
2021/07/11 03:58:47;;;;;;;12.98;6.20;;;14.50;99.90;;;;;;20993957;28;20631;-82
2021/07/11 04:08:50;;;;;;;13.85;6.88;;;14.50;99.90;;;;;;20990517;28;20119;-81
2021/07/11 04:18:54;;;;;;;11.88;8.20;;;14.50;99.90;;;;;;20994010;28;20028;-82
2021/07/11 04:28:56;;;;;;;16.63;7.88;;;14.50;99.90;;;;;;20996885;28;20039;-82
2021/07/11 04:38:57;;;;;;;20.47;7.93;;;14.60;99.90;;;;;;20996192;28;20032;-81
2021/07/11 04:48:57;;;;;;;9.60;5.83;;;14.90;99.90;;;;;;20994896;28;20286;-82
2021/07/11 04:58:59;;;;;;;7.47;5.10;;;15.30;99.90;;;;;;21015655;28;20028;-83
2021/07/11 05:09:00;;;;;;;6.40;4.53;;;15.40;99.90;;;;;;21041045;28;20186;-82
2021/07/11 05:19:02;;;;;;;11.57;4.17;;;15.40;99.90;;;;;;21003141;28;20028;-82
2021/07/11 05:29:03;;;;;;;7.20;3.70;;;15.60;99.90;;;;;;20995204;28;20028;-82
2021/07/11 05:39:05;;;;;;;8.80;4.37;;;16.00;99.90;;;;;;21012144;28;20044;-81
2021/07/11 05:49:06;;;;;;;5.78;4.05;;;16.20;99.90;;;;;;21034337;28;20120;-81
2021/07/11 05:59:07;;;;;;;4.80;3.00;;;15.90;99.90;;;;;;21032302;28;20032;-81
2021/07/11 06:09:08;;;;;;;8.70;3.70;;;15.70;99.90;;;;;;21000340;28;20048;-82
2021/07/11 06:19:09;;;;;;;5.87;3.40;;;15.80;99.90;;;;;;20995458;28;20039;-83
2021/07/11 06:29:10;;;;;;;5.53;3.50;;;15.80;99.90;;;;;;20976255;28;20029;-82
2021/07/11 06:39:11;;;;;;;6.83;4.00;;;15.80;99.90;;;;;;20977049;28;20059;-81
2021/07/11 06:49:12;;;;;;;10.03;3.80;;;16.10;99.90;;;;;;21015463;28;20075;-83
2021/07/11 06:59:12;;;;;;;6.70;3.20;;;16.40;99.90;;;;;;20981645;28;20028;-83
2021/07/11 07:09:13;;;;;;;5.03;3.40;;;16.60;99.90;;;;;;20994487;28;20028;-82
2021/07/11 07:19:14;;;;;;;6.10;3.03;;;16.60;99.90;;;;;;21011387;28;20059;-82
2021/07/11 07:29:15;;;;;;;12.90;4.17;;;17.00;99.90;;;;;;20991767;28;20037;-82
2021/07/11 07:39:16;;;;;;;6.80;3.27;;;16.90;99.90;;;;;;20989732;28;20031;-83
2021/07/11 07:49:17;;;;;;;5.97;3.00;;;17.80;99.90;;;;;;21007364;28;20032;-84
2021/07/11 07:59:18;;;;;;;7.63;3.13;;;18.10;99.90;;;;;;20972867;28;20032;-85
2021/07/11 08:09:19;;;;;;;3.93;2.50;;;18.20;99.90;;;;;;20986027;28;20067;-85
2021/07/11 08:19:20;;;;;;;5.50;2.93;;;18.00;99.90;;;;;;20982798;28;20094;-83
2021/07/11 08:29:21;;;;;;;4.43;2.87;;;17.90;99.90;;;;;;20978626;28;20032;-84
2021/07/11 08:39:23;;;;;;;7.00;2.77;;;18.30;99.90;;;;;;20986412;28;20040;-81
2021/07/11 08:49:23;;;;;;;;;;;18.30;99.90;;;;;;20994851;28;20091;-82
2021/07/11 08:59:27;;;;;;;4.57;2.30;;;18.40;99.90;;;;;;20984844;28;19947;-82
2021/07/11 09:09:30;;;;;;;4.43;2.20;;;18.50;99.90;;;;;;21052914;28;20032;-82
2021/07/11 09:19:34;;;;;;;4.38;2.00;;;20.30;99.90;;;;;;21062518;28;20070;-81
2021/07/11 09:29:36;;;;;;;4.13;2.50;;;19.30;99.90;;;;;;21037039;28;20576;-80
2021/07/11 09:39:51;;;;;;;5.78;2.28;;;19.30;99.90;;;;;;21054816;28;20046;-80
2021/07/11 09:50:06;;;;;;;6.93;1.90;;;21.50;99.90;;;;;;21065921;28;20046;-81
2021/07/11 10:00:12;;;;;;;3.05;1.65;;;21.80;99.90;;;;;;21051446;28;20043;-81
2021/07/11 10:10:19;;;;;;;2.63;1.70;;;21.20;99.90;;;;;;21054399;28;20056;-81
2021/07/11 10:20:21;;;;;;;4.80;1.73;;;22.10;99.90;;;;;;21051397;28;20126;-81
2021/07/11 10:30:29;;;;;;;1.67;0.68;;;22.70;99.90;;;;;;21051039;28;20086;-84
2021/07/11 10:40:32;;;;;;;1.02;0.70;;;22.30;99.90;;;;;;20964250;28;20170;-81
2021/07/11 10:50:33;;;;;;;1.50;0.60;;;23.00;99.90;;;;;;20962940;28;20120;-82
2021/07/11 11:00:34;;;;;;;1.70;1.10;;;23.00;99.90;;;;;;20961828;28;20068;-81
2021/07/11 11:10:37;;;;;;;0.80;0.70;;;23.50;99.90;;;;;;20997784;28;20116;-82
2021/07/11 11:20:39;;;;;;;1.42;0.85;;;23.50;99.90;;;;;;20960518;28;20048;-82
2021/07/11 11:30:43;;;;;;;4.40;0.98;;;23.90;99.90;;;;;;20961295;28;20036;-82
2021/07/11 11:40:44;;;;;;;1.15;0.80;;;23.60;99.90;;;;;;20975626;28;20382;-81
2021/07/11 11:50:45;;;;;;;3.60;1.43;;;23.60;99.90;;;;;;20955618;28;20398;-80
2021/07/11 12:00:46;;;;;;;0.90;0.60;;;23.80;99.90;;;;;;20969988;28;20034;-82
2021/07/11 12:10:47;;;;;;;0.83;0.50;;;23.30;99.90;;;;;;20967168;28;20047;-82
2021/07/11 12:20:52;;;;;;;0.50;0.50;;;23.80;99.90;;;;;;20966685;28;20039;-81
2021/07/11 12:30:55;;;;;;;0.80;0.65;;;23.70;99.90;;;;;;20951283;28;20033;-81
2021/07/11 12:40:57;;;;;;;0.80;0.63;;;24.10;99.90;;;;;;20990446;28;20114;-80
2021/07/11 12:50:59;;;;;;;1.67;0.70;;;23.70;99.90;;;;;;21030319;28;20450;-80
2021/07/11 13:01:06;;;;;;;0.90;0.60;;;23.90;99.90;;;;;;21061578;28;20427;-80
2021/07/11 13:11:07;;;;;;;4.38;0.90;;;23.50;99.90;;;;;;21044469;28;20036;-81
2021/07/11 13:21:08;;;;;;;1.42;0.73;;;24.50;99.90;;;;;;21044947;28;20039;-82
2021/07/11 13:31:09;;;;;;;3.00;0.90;;;24.30;99.90;;;;;;21045060;28;20044;-81
2021/07/11 13:41:10;;;;;;;1.60;0.70;;;24.30;99.90;;;;;;21045907;28;20043;-81
2021/07/11 13:51:11;;;;;;;1.05;0.80;;;24.60;99.90;;;;;;21018085;28;20115;-81
2021/07/11 14:01:12;;;;;;;2.45;0.90;;;25.00;99.90;;;;;;21005551;28;20431;-81
2021/07/11 14:11:13;;;;;;;;;;;25.50;99.90;;;;;;20966522;28;20032;-83
2021/07/11 14:21:16;;;;;;;1.48;0.88;;;25.90;99.90;;;;;;20980422;28;19920;-82
2021/07/11 14:31:17;;;;;;;1.00;0.80;;;25.20;99.90;;;;;;20976462;28;20044;-84
2021/07/11 14:41:17;;;;;;;;;;;26.00;99.90;;;;;;20961743;28;20880;-83
2021/07/11 14:51:18;;;;;;;1.20;0.70;;;25.70;99.90;;;;;;20975631;28;19920;-81
2021/07/11 15:01:19;;;;;;;3.27;1.60;;;24.60;99.90;;;;;;21008342;28;20282;-81
2021/07/11 15:11:20;;;;;;;3.97;1.27;;;25.20;99.90;;;;;;20972667;28;20048;-83
2021/07/11 15:21:21;;;;;;;4.20;1.00;;;24.60;99.90;;;;;;21026294;28;20044;-83
2021/07/11 15:31:22;;;;;;;;;;;25.10;99.90;;;;;;20969628;28;20044;-81
2021/07/11 15:41:23;;;;;;;3.00;1.50;;;24.40;99.90;;;;;;20979589;22;20437;-80
2021/07/11 15:51:24;;;;;;;;;;;24.30;99.90;;;;;;20959079;28;20504;-80
2021/07/11 16:01:25;;;;;;;2.13;1.00;;;24.40;99.90;;;;;;20975791;28;20643;-77
2021/07/11 16:11:26;;;;;;;3.23;1.00;;;24.30;99.90;;;;;;20959222;28;20370;-81
2021/07/11 16:21:27;;;;;;;2.05;1.20;;;24.30;99.90;;;;;;20976510;28;20032;-79
2021/07/11 16:31:28;;;;;;;1.43;1.13;;;23.70;99.90;;;;;;20975241;28;20028;-80
2021/07/11 16:41:31;;;;;;;1.27;1.00;;;23.90;99.90;;;;;;20974810;28;20056;-81
2021/07/11 16:51:31;;;;;;;2.35;0.90;;;23.70;99.90;;;;;;20954903;28;20115;-80
2021/07/11 17:01:32;;;;;;;2.03;1.30;;;23.70;99.90;;;;;;20950680;28;20556;-79
2021/07/11 17:11:34;;;;;;;1.67;1.23;;;23.60;99.90;;;;;;20947366;28;20082;-81
2021/07/11 17:21:35;;;;;;;1.33;0.95;;;23.50;99.90;;;;;;20949109;28;20044;-81
2021/07/11 17:31:36;;;;;;;2.88;0.98;;;23.60;99.90;;;;;;20950370;28;20134;-81
2021/07/11 17:41:37;;;;;;;1.97;1.00;;;23.20;99.90;;;;;;20950801;28;20149;-80
2021/07/11 17:51:38;;;;;;;2.90;0.90;;;23.20;99.90;;;;;;20950839;28;20295;-81
2021/07/11 18:01:39;;;;;;;1.33;0.87;;;23.30;99.90;;;;;;20953454;28;20043;-81
2021/07/11 18:11:40;;;;;;;1.00;0.83;;;24.40;99.90;;;;;;20963783;28;20028;-82
2021/07/11 18:21:40;;;;;;;4.97;0.93;;;25.70;99.90;;;;;;20967723;28;20012;-83
2021/07/11 18:31:41;;;;;;;1.30;0.90;;;25.70;99.90;;;;;;20969809;28;20075;-83
2021/07/11 18:41:42;;;;;;;2.17;1.00;;;24.20;99.90;;;;;;20969809;28;20045;-83
2021/07/11 18:51:44;;;;;;;1.33;1.10;;;22.10;99.90;;;;;;20969619;28;20054;-85
2021/07/11 19:01:45;;;;;;;1.83;1.20;;;21.20;99.90;;;;;;20979971;28;20040;-84
2021/07/11 19:11:46;;;;;;;2.57;1.30;;;20.60;99.90;;;;;;20987915;28;20128;-84
2021/07/11 19:21:47;;;;;;;1.77;1.33;;;19.70;99.90;;;;;;20980334;28;20108;-78
2021/07/11 19:31:48;;;;;;;2.10;1.40;;;18.60;99.90;;;;;;20972367;28;20282;-83
2021/07/11 19:41:51;;;;;;;6.23;1.63;;;18.20;99.90;;;;;;20971080;28;20047;-81
2021/07/11 19:51:52;;;;;;;3.42;1.40;;;18.40;99.90;;;;;;20965755;28;20047;-82
2021/07/11 20:01:53;;;;;;;3.47;1.30;;;18.00;99.90;;;;;;20983507;28;20498;-82
2021/07/11 20:11:54;;;;;;;1.53;1.10;;;18.40;99.90;;;;;;20967047;28;20435;-83
2021/07/11 20:21:56;;;;;;;4.13;1.37;;;18.80;99.90;;;;;;20952319;28;20588;-82
2021/07/11 20:31:57;;;;;;;3.33;1.85;;;18.40;99.90;;;;;;20945116;28;20109;-81
2021/07/11 20:41:58;;;;;;;1.33;1.17;;;18.00;99.90;;;;;;20959993;28;20052;-83
2021/07/11 20:51:59;;;;;;;;;;;17.90;99.90;;;;;;20980360;28;20028;-82
2021/07/11 21:02:00;;;;;;;2.55;1.40;;;17.90;99.90;;;;;;20977374;28;20223;-81
2021/07/11 21:12:03;;;;;;;2.77;1.53;;;17.60;99.90;;;;;;20979301;28;20595;-78
2021/07/11 21:22:07;;;;;;;5.18;1.35;;;17.30;99.90;;;;;;20978109;28;20106;-80
2021/07/11 21:32:08;;;;;;;4.72;1.70;;;17.30;99.90;;;;;;20976198;28;20040;-85
2021/07/11 21:42:09;;;;;;;4.03;1.70;;;17.30;99.90;;;;;;21043143;22;20473;-76
2021/07/11 21:52:09;;;;;;;2.13;1.50;;;17.10;99.90;;;;;;21103891;28;20028;-77
2021/07/11 22:02:10;;;;;;;1.73;1.10;;;17.00;99.90;;;;;;21095223;28;20032;-77
2021/07/11 22:12:11;;;;;;;1.87;1.40;;;16.80;99.90;;;;;;21106261;28;20028;-78
2021/07/11 22:22:12;;;;;;;1.70;1.30;;;16.70;99.90;;;;;;21105050;28;20506;-77
2021/07/11 22:32:13;;;;;;;2.40;1.20;;;16.50;99.90;;;;;;21092377;28;20401;-76
2021/07/11 22:42:16;;;;;;;1.87;1.43;;;16.60;99.90;;;;;;21083699;28;20115;-76
2021/07/11 22:52:17;;;;;;;3.70;1.42;;;16.60;99.90;;;;;;21065569;28;20028;-75
2021/07/11 23:02:18;;;;;;;4.43;1.57;;;16.40;99.90;;;;;;21083825;28;20039;-76
2021/07/11 23:12:19;;;;;;;3.20;1.60;;;16.40;99.90;;;;;;21063317;28;20032;-75
2021/07/11 23:22:20;;;;;;;3.10;1.77;;;16.20;99.90;;;;;;21062635;28;20036;-75
2021/07/11 23:32:21;;;;;;;1.97;1.43;;;15.90;99.90;;;;;;21061853;28;20561;-74
2021/07/11 23:42:22;;;;;;;1.67;1.50;;;15.80;99.90;;;;;;21079108;28;20046;-76
2021/07/11 23:52:22;;;;;;;2.53;1.40;;;16.00;99.90;;;;;;21078217;28;20461;-75
